Terminal Aerodrome Forecast
Issued by NWS Corpus Christi, TX

Home | Current Version | Previous Version | Text Only | Print | Product List | Glossary On
Versions: 1 2 3 4 5 6 7 8 9 10 11 12 13 14
000
FTUS44 KCRP 251300 AAA
TAFVCT
TAF AMD
KVCT 251359Z 2514/2612 35004KT 5SM BR SKC
     FM251500 35005KT P6SM SKC
     FM252100 12007KT P6SM SKC
     FM260800 VRB03KT 3SM BR SKC=

USA.gov is the U.S. government's official web portal to all federal, state and local government web resources and services.